Time;durP1;ratioP1;P1;durP2;ratioP2;P2;SDS_P1;SDS_P2;PMS_P1;PMS_P2;Temp;Humidity;BMP_temperature;BMP_pressure;BME280_temperature;BME280_humidity;BME280_pressure;Samples;Min_cycle;Max_cycle;Signal;HPM_P1;HPM_P2
2022/10/20 00:00:01;;;;;;;49.38;34.00;;;8.60;99.90;;;;;;5012178;28;20122;-68
2022/10/20 00:02:28;;;;;;;55.80;37.50;;;8.60;99.90;;;;;;5012321;28;20042;-69
2022/10/20 00:04:55;;;;;;;56.92;39.25;;;8.60;99.90;;;;;;5080187;28;20085;-69
2022/10/20 00:07:24;;;;;;;58.50;41.47;;;8.60;99.90;;;;;;5079756;28;20046;-69
2022/10/20 00:09:51;;;;;;;63.17;42.13;;;8.60;99.90;;;;;;5012145;28;20116;-67
2022/10/20 00:12:18;;;;;;;52.42;34.53;;;8.60;99.90;;;;;;5011912;28;20127;-68
2022/10/20 00:14:46;;;;;;;42.25;27.55;;;8.50;99.90;;;;;;5079600;28;20077;-68
2022/10/20 00:17:13;;;;;;;44.00;28.17;;;8.60;99.90;;;;;;5012127;28;20046;-69
2022/10/20 00:19:40;;;;;;;38.10;26.20;;;8.60;99.90;;;;;;5011946;28;20498;-68
2022/10/20 00:22:07;;;;;;;39.67;26.67;;;8.60;99.90;;;;;;5012200;28;20522;-69
2022/10/20 00:24:36;;;;;;;47.95;29.25;;;8.70;99.90;;;;;;5011689;28;20069;-69
2022/10/20 00:27:03;;;;;;;54.55;33.63;;;8.70;99.90;;;;;;5011524;28;20170;-68
2022/10/20 00:29:31;;;;;;;48.10;31.55;;;8.70;99.90;;;;;;5079959;28;20046;-68
2022/10/20 00:31:58;;;;;;;42.22;23.95;;;8.70;99.90;;;;;;5011890;28;20080;-69
2022/10/20 00:34:25;;;;;;;40.67;26.13;;;8.60;99.90;;;;;;5091548;28;20057;-69
2022/10/20 00:36:52;;;;;;;42.20;25.17;;;8.50;99.90;;;;;;5094445;28;20061;-68
2022/10/20 00:39:20;;;;;;;37.03;24.15;;;8.50;99.90;;;;;;5028482;28;20068;-68
2022/10/20 00:41:49;;;;;;;40.50;25.00;;;8.40;99.90;;;;;;5028097;28;20050;-68
2022/10/20 00:44:49;;;;;;;40.03;24.42;;;8.30;99.90;;;;;;5027293;28;20069;-68
2022/10/20 00:47:19;;;;;;;29.55;20.33;;;8.30;99.90;;;;;;5026400;28;20071;-69
2022/10/20 00:49:47;;;;;;;27.02;19.15;;;8.20;99.90;;;;;;5025562;28;20044;-68
2022/10/20 00:52:17;;;;;;;31.58;20.13;;;8.10;99.90;;;;;;5026166;28;20103;-67
2022/10/20 00:54:44;;;;;;;31.80;21.08;;;8.10;99.90;;;;;;5029208;28;20071;-68
2022/10/20 00:57:13;;;;;;;31.58;19.70;;;8.10;99.90;;;;;;5020572;28;20125;-70
2022/10/20 00:59:41;;;;;;;32.42;21.33;;;8.10;99.90;;;;;;5012930;28;20126;-67
2022/10/20 01:02:09;;;;;;;35.22;23.17;;;8.10;99.90;;;;;;5013652;28;20099;-68
2022/10/20 01:04:38;;;;;;;38.60;25.08;;;8.20;99.90;;;;;;5012710;28;20042;-68
2022/10/20 01:07:05;;;;;;;40.22;25.85;;;8.20;99.90;;;;;;5011830;28;20077;-68
2022/10/20 01:09:33;;;;;;;37.53;24.17;;;8.30;99.90;;;;;;5011248;28;20061;-68
2022/10/20 01:12:10;;;;;;;38.35;24.60;;;8.30;99.90;;;;;;5013327;28;20077;-68
2022/10/20 01:14:49;;;;;;;38.50;23.83;;;8.40;99.90;;;;;;5018113;28;20071;-68
2022/10/20 01:17:26;;;;;;;43.25;24.27;;;8.40;99.90;;;;;;5028950;28;20054;-67
2022/10/20 01:20:23;;;;;;;36.22;23.02;;;8.40;99.90;;;;;;5095848;28;20052;-70
2022/10/20 01:23:15;;;;;;;39.60;26.40;;;8.40;99.90;;;;;;5010582;28;20087;-66
2022/10/20 01:25:57;;;;;;;48.38;29.52;;;8.40;99.90;;;;;;5078793;28;20088;-68
2022/10/20 01:28:32;;;;;;;52.60;33.45;;;8.40;99.90;;;;;;5011195;28;20472;-68
2022/10/20 01:31:04;;;;;;;44.33;29.40;;;8.30;99.90;;;;;;5049076;22;20143;-71
2022/10/20 01:33:39;;;;;;;47.83;31.92;;;8.30;99.90;;;;;;5086047;28;20526;-71
2022/10/20 01:36:13;;;;;;;40.67;26.80;;;8.30;99.90;;;;;;5094310;28;20450;-71
2022/10/20 01:38:45;;;;;;;38.33;22.40;;;8.20;99.90;;;;;;5094201;28;20075;-71
2022/10/20 01:41:18;;;;;;;31.33;19.40;;;8.20;99.90;;;;;;5075994;28;20101;-71
2022/10/20 01:43:49;;;;;;;29.00;18.40;;;8.20;99.90;;;;;;5094324;28;20044;-71
2022/10/20 01:46:19;;;;;;;28.58;18.23;;;8.20;99.90;;;;;;5094397;28;20068;-72
2022/10/20 01:48:47;;;;;;;29.60;20.10;;;8.30;99.90;;;;;;5076252;28;20472;-71
2022/10/20 01:51:14;;;;;;;34.67;21.52;;;8.50;99.90;;;;;;5094434;28;20036;-71
2022/10/20 01:53:41;;;;;;;35.33;22.50;;;8.50;99.90;;;;;;5094037;28;20075;-72
2022/10/20 01:56:16;;;;;;;36.42;22.58;;;8.60;99.90;;;;;;5075655;28;20052;-71
2022/10/20 01:59:19;;;;;;;36.80;21.73;;;8.50;99.90;;;;;;5094399;28;20040;-71
2022/10/20 02:02:10;;;;;;;32.38;22.50;;;8.50;99.90;;;;;;5060864;28;20063;-71
2022/10/20 02:04:50;;;;;;;32.28;22.33;;;8.50;99.90;;;;;;5086819;28;20052;-71
2022/10/20 02:07:24;;;;;;;34.72;22.00;;;8.40;99.90;;;;;;5097371;28;20565;-71
2022/10/20 02:09:57;;;;;;;33.80;21.92;;;8.50;99.90;;;;;;5097411;28;20078;-70
2022/10/20 02:12:27;;;;;;;33.38;20.77;;;8.50;99.90;;;;;;5079297;28;20552;-70
2022/10/20 02:14:57;;;;;;;32.95;21.50;;;8.50;99.90;;;;;;5079680;28;20067;-71
2022/10/20 02:17:24;;;;;;;28.02;20.15;;;8.60;99.90;;;;;;5097626;28;20067;-71
2022/10/20 02:19:53;;;;;;;31.15;20.70;;;8.60;99.90;;;;;;5097055;28;20080;-71
2022/10/20 02:22:22;;;;;;;33.10;21.25;;;8.50;99.90;;;;;;5079241;28;20498;-71
2022/10/20 02:24:50;;;;;;;35.97;24.10;;;8.50;99.90;;;;;;5097642;28;20040;-72
2022/10/20 02:27:20;;;;;;;38.38;25.95;;;8.50;99.90;;;;;;5079547;28;20051;-72
2022/10/20 02:29:54;;;;;;;36.95;24.65;;;8.50;99.90;;;;;;5097823;28;20466;-72
2022/10/20 02:32:25;;;;;;;38.20;26.42;;;8.40;99.90;;;;;;5097674;28;20067;-71
2022/10/20 02:34:52;;;;;;;37.60;25.13;;;8.40;99.90;;;;;;5098030;28;20089;-71
2022/10/20 02:37:19;;;;;;;35.95;24.25;;;8.40;99.90;;;;;;5097259;28;20089;-72
2022/10/20 02:39:47;;;;;;;38.13;24.38;;;8.40;99.90;;;;;;5097535;28;20161;-72
2022/10/20 02:42:16;;;;;;;44.47;31.02;;;8.40;99.90;;;;;;5098313;28;20040;-72
2022/10/20 02:44:43;;;;;;;37.17;26.92;;;8.30;99.90;;;;;;5097765;28;20067;-71
2022/10/20 02:47:10;;;;;;;34.25;24.40;;;8.30;99.90;;;;;;5101554;28;20043;-72
2022/10/20 02:49:39;;;;;;;39.72;26.38;;;8.20;99.90;;;;;;5119116;28;20046;-71
2022/10/20 02:52:06;;;;;;;34.97;25.17;;;8.20;99.90;;;;;;5110541;28;20044;-71
2022/10/20 02:54:33;;;;;;;38.42;23.05;;;8.10;99.90;;;;;;5098541;28;20090;-72
2022/10/20 02:57:01;;;;;;;33.65;21.63;;;8.20;99.90;;;;;;5080434;28;20499;-71
2022/10/20 02:59:28;;;;;;;28.85;19.15;;;8.20;99.90;;;;;;5099119;28;20060;-71
2022/10/20 03:01:55;;;;;;;29.20;18.88;;;8.30;99.90;;;;;;5098429;28;20066;-71
2022/10/20 03:04:22;;;;;;;27.50;19.15;;;8.30;99.90;;;;;;5098481;28;20044;-70
2022/10/20 03:06:51;;;;;;;27.25;19.13;;;8.30;99.90;;;;;;5097462;28;20172;-71
2022/10/20 03:09:18;;;;;;;28.33;17.95;;;8.30;99.90;;;;;;5097734;28;20487;-70
2022/10/20 03:11:45;;;;;;;28.10;18.85;;;8.30;99.90;;;;;;5079106;28;20047;-70
2022/10/20 03:14:13;;;;;;;26.20;17.17;;;8.30;99.90;;;;;;5095742;28;20036;-71
2022/10/20 03:16:40;;;;;;;26.88;17.80;;;8.30;99.90;;;;;;5096170;28;20063;-71
2022/10/20 03:19:07;;;;;;;24.98;17.05;;;8.20;99.90;;;;;;5097702;28;20040;-72
2022/10/20 03:21:35;;;;;;;27.52;17.63;;;8.20;99.90;;;;;;5097529;28;20036;-70
2022/10/20 03:24:04;;;;;;;25.23;17.00;;;8.20;99.90;;;;;;5079661;28;20448;-70
2022/10/20 03:26:31;;;;;;;25.83;16.35;;;8.20;99.90;;;;;;5096559;28;20068;-71
2022/10/20 03:28:58;;;;;;;20.77;15.18;;;8.10;99.90;;;;;;5097017;28;20059;-71
2022/10/20 03:31:25;;;;;;;24.20;15.73;;;8.10;99.90;;;;;;5097579;28;20560;-71
2022/10/20 03:33:53;;;;;;;28.88;17.33;;;8.10;99.90;;;;;;5087320;28;20044;-70
2022/10/20 03:36:20;;;;;;;25.67;17.08;;;8.00;99.90;;;;;;5106021;28;20068;-71
2022/10/20 03:38:47;;;;;;;28.38;17.45;;;7.90;99.90;;;;;;5104740;28;20044;-71
2022/10/20 03:41:16;;;;;;;26.42;17.92;;;7.90;99.90;;;;;;5083848;28;20406;-71
2022/10/20 03:43:43;;;;;;;27.42;19.58;;;7.80;99.90;;;;;;5105724;28;20051;-71
2022/10/20 03:46:12;;;;;;;28.08;17.50;;;7.80;99.90;;;;;;5099795;28;20044;-72
2022/10/20 03:48:40;;;;;;;30.27;19.30;;;7.70;99.90;;;;;;5075464;28;20083;-72
2022/10/20 03:51:08;;;;;;;29.30;19.48;;;7.70;99.90;;;;;;5101130;28;20036;-72
2022/10/20 03:53:36;;;;;;;27.27;19.27;;;7.70;99.90;;;;;;5099700;28;20039;-73
2022/10/20 03:56:06;;;;;;;30.95;19.95;;;7.70;99.90;;;;;;5098885;28;20062;-71
2022/10/20 03:58:35;;;;;;;26.63;19.13;;;7.70;99.90;;;;;;5081724;28;20483;-71
2022/10/20 04:01:05;;;;;;;27.67;18.33;;;7.60;99.90;;;;;;5097915;28;20391;-71
2022/10/20 04:03:32;;;;;;;25.83;19.45;;;7.60;99.90;;;;;;5096911;28;20069;-70
2022/10/20 04:05:59;;;;;;;28.98;19.08;;;7.50;99.90;;;;;;5096940;28;20118;-70
2022/10/20 04:08:27;;;;;;;35.20;21.20;;;7.50;99.90;;;;;;5097131;28;20044;-70
2022/10/20 04:10:54;;;;;;;30.73;21.27;;;7.50;99.90;;;;;;5096541;28;20376;-71
2022/10/20 04:13:21;;;;;;;31.45;22.33;;;7.40;99.90;;;;;;5079012;28;20055;-71
2022/10/20 04:15:50;;;;;;;33.90;23.52;;;7.40;99.90;;;;;;5097224;28;20040;-72
2022/10/20 04:18:17;;;;;;;35.47;23.38;;;7.30;99.90;;;;;;5078130;28;20510;-71
2022/10/20 04:20:45;;;;;;;37.60;22.88;;;7.20;99.90;;;;;;5096534;28;20063;-70
2022/10/20 04:23:12;;;;;;;37.03;25.33;;;7.20;99.90;;;;;;5098024;28;20097;-70
2022/10/20 04:25:44;;;;;;;36.75;22.98;;;7.30;99.90;;;;;;5099613;28;20036;-73
2022/10/20 04:28:11;;;;;;;38.63;23.77;;;7.30;99.90;;;;;;5097977;28;20499;-70
2022/10/20 04:30:39;;;;;;;39.03;23.27;;;7.30;99.90;;;;;;5100531;28;20050;-70
2022/10/20 04:33:08;;;;;;;34.67;23.25;;;7.20;99.90;;;;;;5100771;28;20127;-71
2022/10/20 04:35:35;;;;;;;38.70;24.58;;;7.20;99.90;;;;;;5080893;28;20076;-71
2022/10/20 04:38:02;;;;;;;42.30;26.70;;;7.20;99.90;;;;;;5098891;28;20560;-70
2022/10/20 04:40:30;;;;;;;41.85;24.95;;;7.20;99.90;;;;;;5099177;28;20036;-70
2022/10/20 04:42:59;;;;;;;41.67;27.75;;;7.10;99.90;;;;;;5081582;28;20067;-71
2022/10/20 04:45:27;;;;;;;45.72;27.77;;;7.10;99.90;;;;;;5099959;28;20103;-70
2022/10/20 04:47:54;;;;;;;38.88;26.13;;;7.00;99.90;;;;;;5096559;28;20109;-71
2022/10/20 04:50:23;;;;;;;37.25;24.05;;;7.00;99.90;;;;;;5096706;28;20074;-71
2022/10/20 04:53:02;;;;;;;36.85;23.60;;;7.00;99.90;;;;;;5078459;28;20062;-71
2022/10/20 04:55:29;;;;;;;46.67;27.80;;;7.00;99.90;;;;;;5096636;28;20039;-71
2022/10/20 04:57:56;;;;;;;41.83;26.05;;;7.00;99.90;;;;;;5077706;28;20078;-71
2022/10/20 05:00:23;;;;;;;43.65;26.80;;;7.00;99.90;;;;;;5095784;28;20068;-71
2022/10/20 05:02:51;;;;;;;43.88;25.77;;;7.00;99.90;;;;;;5095598;28;20427;-71
2022/10/20 05:05:18;;;;;;;39.47;25.75;;;7.00;99.90;;;;;;5095016;28;20445;-71
2022/10/20 05:07:47;;;;;;;46.92;29.38;;;7.10;99.90;;;;;;5077788;28;20115;-71
2022/10/20 05:10:14;;;;;;;48.63;28.70;;;7.20;99.90;;;;;;5096275;28;20079;-72
2022/10/20 05:12:41;;;;;;;42.97;24.95;;;7.20;99.90;;;;;;5095388;28;20089;-72
2022/10/20 05:15:09;;;;;;;37.72;24.25;;;7.30;99.90;;;;;;5095644;28;20078;-71
2022/10/20 05:17:36;;;;;;;34.03;22.38;;;7.50;99.90;;;;;;5078297;28;20105;-71
2022/10/20 05:20:04;;;;;;;40.15;24.23;;;7.60;99.90;;;;;;5095217;28;20044;-71
2022/10/20 05:22:31;;;;;;;32.92;22.08;;;7.70;99.90;;;;;;5095508;28;20040;-71
2022/10/20 05:25:00;;;;;;;42.08;24.45;;;7.70;99.90;;;;;;5078353;28;20455;-72
2022/10/20 05:27:28;;;;;;;49.13;29.77;;;7.70;99.90;;;;;;5096150;28;20092;-71
2022/10/20 05:29:55;;;;;;;45.60;26.85;;;7.90;99.90;;;;;;5096550;28;20048;-70
2022/10/20 05:32:22;;;;;;;44.95;28.00;;;7.80;99.90;;;;;;5078797;28;20052;-70
2022/10/20 05:34:50;;;;;;;49.55;30.40;;;7.80;99.90;;;;;;5096586;28;20051;-71
2022/10/20 05:37:17;;;;;;;45.45;28.10;;;7.90;99.90;;;;;;5096561;28;20078;-71
2022/10/20 05:39:44;;;;;;;45.35;29.33;;;7.90;99.90;;;;;;5095824;28;20043;-72
2022/10/20 05:42:13;;;;;;;47.67;27.58;;;8.00;99.90;;;;;;5096041;28;20093;-71
2022/10/20 05:44:40;;;;;;;44.13;27.55;;;8.00;99.90;;;;;;5095526;28;20075;-72
2022/10/20 05:47:07;;;;;;;41.13;27.77;;;8.10;99.90;;;;;;5096150;28;20079;-71
2022/10/20 05:49:35;;;;;;;45.72;27.40;;;8.10;99.90;;;;;;5095774;28;20491;-71
2022/10/20 05:52:02;;;;;;;54.85;31.70;;;8.10;99.90;;;;;;5096800;28;20056;-71
2022/10/20 05:54:29;;;;;;;55.78;33.85;;;8.20;99.90;;;;;;5091334;28;20101;-71
2022/10/20 05:56:56;;;;;;;44.78;29.38;;;8.20;99.90;;;;;;5089017;28;20075;-71
2022/10/20 05:59:26;;;;;;;53.80;33.80;;;8.20;99.90;;;;;;5096680;28;20047;-72
2022/10/20 06:01:53;;;;;;;59.13;37.70;;;8.30;99.90;;;;;;5096568;28;20469;-71
2022/10/20 06:04:22;;;;;;;59.22;34.60;;;8.40;99.90;;;;;;5097463;28;20101;-71
2022/10/20 06:06:50;;;;;;;57.28;34.08;;;8.50;99.90;;;;;;5096436;28;20044;-71
2022/10/20 06:09:18;;;;;;;53.90;33.08;;;8.60;99.90;;;;;;5079120;28;20089;-71
2022/10/20 06:11:46;;;;;;;57.38;33.25;;;8.60;99.90;;;;;;5097254;28;20039;-71
2022/10/20 06:14:14;;;;;;;47.45;31.73;;;8.70;99.90;;;;;;5097861;28;20040;-71
2022/10/20 06:16:42;;;;;;;48.85;28.83;;;8.80;99.90;;;;;;5101595;28;20192;-72
2022/10/20 06:19:10;;;;;;;45.47;31.08;;;8.90;99.90;;;;;;5101888;28;20036;-71
2022/10/20 06:21:38;;;;;;;37.50;23.73;;;9.00;99.90;;;;;;5097399;28;20078;-71
2022/10/20 06:24:07;;;;;;;35.35;23.35;;;9.00;99.90;;;;;;5103966;27;20046;-71
2022/10/20 06:26:36;;;;;;;33.85;22.13;;;9.00;99.90;;;;;;5117771;27;20016;-71
2022/10/20 06:29:05;;;;;;;33.47;21.35;;;9.00;99.90;;;;;;5117752;27;20103;-71
2022/10/20 06:31:34;;;;;;;31.90;21.45;;;9.00;99.90;;;;;;5117433;27;20032;-71
2022/10/20 06:34:05;;;;;;;40.35;26.73;;;9.10;99.90;;;;;;5117920;27;20052;-71
2022/10/20 06:36:35;;;;;;;36.40;24.25;;;9.20;99.90;;;;;;5117861;28;20062;-72
2022/10/20 06:39:04;;;;;;;39.13;25.17;;;9.40;99.90;;;;;;5100550;27;20024;-70
2022/10/20 06:41:32;;;;;;;42.85;25.15;;;9.50;99.90;;;;;;5117828;27;20043;-70
2022/10/20 06:43:59;;;;;;;46.15;29.25;;;9.70;99.90;;;;;;5117751;27;20047;-71
2022/10/20 06:46:29;;;;;;;45.25;25.63;;;9.90;99.90;;;;;;5117936;27;20033;-71
2022/10/20 06:48:57;;;;;;;40.88;26.75;;;10.00;99.90;;;;;;5102148;28;20624;-71
2022/10/20 06:51:25;;;;;;;47.85;28.42;;;10.20;99.90;;;;;;5097948;28;20075;-70
2022/10/20 06:53:53;;;;;;;46.97;29.98;;;10.30;99.90;;;;;;5080117;28;20101;-70
2022/10/20 06:56:22;;;;;;;47.35;28.83;;;10.40;99.90;;;;;;5098615;28;20068;-71
2022/10/20 06:58:51;;;;;;;49.88;29.88;;;10.70;99.90;;;;;;5104102;28;20040;-71
2022/10/20 07:01:22;;;;;;;47.42;31.33;;;10.80;99.90;;;;;;5104640;28;20495;-71
2022/10/20 07:03:51;;;;;;;45.85;28.80;;;10.90;99.90;;;;;;5086978;28;20487;-71
2022/10/20 07:06:21;;;;;;;47.80;28.17;;;11.10;99.90;;;;;;5104471;28;20093;-71
2022/10/20 07:08:52;;;;;;;45.78;30.98;;;11.30;99.90;;;;;;5100195;28;20114;-71
2022/10/20 07:11:20;;;;;;;47.05;27.70;;;11.60;99.90;;;;;;5099472;28;20126;-71
2022/10/20 07:13:48;;;;;;;42.08;24.85;;;11.80;99.90;;;;;;5098769;28;20036;-71
2022/10/20 07:16:17;;;;;;;42.38;23.80;;;11.80;99.90;;;;;;5098714;28;20127;-72
2022/10/20 07:18:44;;;;;;;39.92;23.08;;;11.90;99.90;;;;;;5080311;28;20044;-71
2022/10/20 07:21:14;;;;;;;37.75;23.70;;;11.90;99.90;;;;;;5098301;28;20506;-71
2022/10/20 07:23:42;;;;;;;47.72;23.50;;;12.00;99.90;;;;;;5097881;28;20479;-71
2022/10/20 07:26:13;;;;;;;45.67;23.30;;;12.20;99.90;;;;;;5098316;28;20511;-72
2022/10/20 07:28:41;;;;;;;41.72;23.55;;;12.50;99.90;;;;;;5098048;28;20462;-71
2022/10/20 07:31:12;;;;;;;43.88;25.15;;;12.70;99.90;;;;;;5113392;22;21054;-70
2022/10/20 07:33:39;;;;;;;43.47;26.58;;;12.90;99.90;;;;;;5087913;28;20085;-72
2022/10/20 07:36:14;;;;;;;47.35;27.35;;;12.80;99.90;;;;;;5096265;28;20048;-71
2022/10/20 07:38:41;;;;;;;43.47;25.17;;;13.10;99.90;;;;;;5096480;28;20040;-72
2022/10/20 07:41:10;;;;;;;44.72;25.73;;;13.30;99.90;;;;;;5078181;28;20105;-71
2022/10/20 07:43:39;;;;;;;36.22;23.52;;;13.40;99.90;;;;;;5096115;28;20127;-72
2022/10/20 07:46:07;;;;;;;35.30;21.00;;;13.60;99.90;;;;;;5096669;28;20158;-72
2022/10/20 07:48:34;;;;;;;33.72;21.98;;;13.80;99.90;;;;;;5096302;28;20040;-71
2022/10/20 07:51:25;;;;;;;34.50;22.13;;;13.70;99.90;;;;;;5096106;28;20056;-73
2022/10/20 07:53:53;;;;;;;36.55;20.30;;;13.80;99.90;;;;;;5096523;28;20036;-72
2022/10/20 07:56:22;;;;;;;31.35;19.58;;;13.80;99.90;;;;;;5095901;28;20081;-73
2022/10/20 07:58:49;;;;;;;28.23;20.52;;;13.80;99.90;;;;;;5096389;28;20040;-72
2022/10/20 08:01:17;;;;;;;33.03;19.90;;;13.60;99.90;;;;;;5095966;28;20072;-72
2022/10/20 08:03:44;;;;;;;18.27;11.15;;;13.70;99.90;;;;;;5095037;28;20127;-72
2022/10/20 08:06:11;;;;;;;14.10;7.85;;;13.80;99.90;;;;;;5077684;28;20147;-72
2022/10/20 08:08:39;;;;;;;20.20;9.70;;;14.00;99.90;;;;;;5095832;28;20101;-72
2022/10/20 08:11:06;;;;;;;20.77;11.60;;;14.10;99.90;;;;;;5078010;28;20048;-72
2022/10/20 08:13:35;;;;;;;19.13;10.68;;;14.10;99.90;;;;;;5095841;28;20032;-72
2022/10/20 08:16:03;;;;;;;22.75;12.63;;;14.10;99.90;;;;;;5079727;28;20052;-72
2022/10/20 08:18:30;;;;;;;22.88;12.57;;;14.20;99.90;;;;;;5096292;28;20052;-72
2022/10/20 08:21:07;;;;;;;21.35;11.88;;;14.40;99.90;;;;;;5095300;28;20048;-71
2022/10/20 08:23:34;;;;;;;16.00;9.05;;;14.40;99.90;;;;;;5095285;28;20032;-72
2022/10/20 08:26:01;;;;;;;15.32;9.10;;;14.40;99.90;;;;;;5095324;28;20078;-72
2022/10/20 08:28:28;;;;;;;15.73;8.68;;;14.40;99.90;;;;;;5076797;28;20048;-72
2022/10/20 08:30:57;;;;;;;18.33;10.38;;;14.30;99.90;;;;;;5094992;28;20402;-72
2022/10/20 08:33:24;;;;;;;18.05;9.85;;;14.20;99.90;;;;;;5095402;28;20036;-71
2022/10/20 08:35:51;;;;;;;34.00;18.88;;;14.10;99.90;;;;;;5095775;28;20518;-72
2022/10/20 08:38:19;;;;;;;17.58;9.40;;;14.10;99.90;;;;;;5095036;28;20070;-72
2022/10/20 08:40:46;;;;;;;18.65;10.18;;;14.20;99.90;;;;;;5094776;28;20144;-72
2022/10/20 08:43:18;;;;;;;20.00;10.63;;;14.20;99.90;;;;;;5094841;28;20122;-73
2022/10/20 08:45:46;;;;;;;25.70;15.27;;;14.30;99.90;;;;;;5095123;28;20047;-71
2022/10/20 08:48:19;;;;;;;20.25;11.15;;;14.40;99.90;;;;;;5094922;28;20503;-71
2022/10/20 08:50:49;;;;;;;19.10;11.82;;;14.50;99.90;;;;;;5094556;28;20059;-72
2022/10/20 08:53:19;;;;;;;21.30;12.93;;;14.50;99.90;;;;;;5094488;28;20051;-72
2022/10/20 08:55:47;;;;;;;23.38;13.43;;;14.60;99.90;;;;;;5076486;28;20048;-72
2022/10/20 08:58:18;;;;;;;27.45;14.98;;;14.50;99.90;;;;;;5094458;28;20040;-72
2022/10/20 09:00:46;;;;;;;26.45;16.75;;;14.50;99.90;;;;;;5095501;28;20068;-71
2022/10/20 09:03:21;;;;;;;25.95;15.32;;;14.60;99.90;;;;;;5095842;28;20032;-72
2022/10/20 09:05:52;;;;;;;27.38;15.40;;;14.80;99.90;;;;;;5095076;28;20514;-72
2022/10/20 09:08:21;;;;;;;27.23;15.50;;;14.90;99.90;;;;;;5099986;28;20101;-71
2022/10/20 09:10:51;;;;;;;27.92;14.80;;;15.00;99.90;;;;;;5096546;28;20044;-71
2022/10/20 09:13:23;;;;;;;18.23;10.63;;;15.00;99.90;;;;;;5094160;28;20449;-72
2022/10/20 09:15:51;;;;;;;25.02;12.98;;;15.10;99.90;;;;;;5093641;28;20093;-72
2022/10/20 09:18:20;;;;;;;29.77;15.40;;;15.00;99.90;;;;;;5093866;28;20494;-72
2022/10/20 09:20:52;;;;;;;27.17;12.10;;;15.10;99.90;;;;;;5094164;28;20047;-72
2022/10/20 09:23:23;;;;;;;24.88;11.77;;;15.10;99.90;;;;;;5093763;28;20507;-71
2022/10/20 09:25:52;;;;;;;20.63;12.38;;;15.00;99.90;;;;;;5093832;28;20123;-72
2022/10/20 09:28:23;;;;;;;32.08;14.00;;;15.10;99.90;;;;;;5094188;28;20040;-72
2022/10/20 09:30:51;;;;;;;36.40;15.30;;;15.10;99.90;;;;;;5075923;28;20075;-72
2022/10/20 09:33:28;;;;;;;26.25;16.45;;;15.00;99.90;;;;;;5093847;28;20060;-73
2022/10/20 09:36:02;;;;;;;29.40;16.02;;;15.10;99.90;;;;;;5093977;28;20044;-72
2022/10/20 09:38:33;;;;;;;30.55;21.05;;;15.20;99.90;;;;;;5094514;28;20051;-72
2022/10/20 09:41:09;;;;;;;30.20;15.80;;;15.20;99.90;;;;;;5094080;28;20495;-71
2022/10/20 09:43:40;;;;;;;30.08;15.43;;;15.20;99.90;;;;;;5094568;28;20043;-72
2022/10/20 09:46:11;;;;;;;35.30;19.27;;;15.20;99.90;;;;;;5095517;28;20113;-72
2022/10/20 09:48:42;;;;;;;69.30;24.90;;;15.40;99.90;;;;;;5094956;28;20088;-72
2022/10/20 09:51:15;;;;;;;29.38;18.08;;;15.40;99.90;;;;;;5094802;28;20455;-71
2022/10/20 09:53:51;;;;;;;34.28;17.40;;;15.40;99.90;;;;;;5096001;28;20064;-71
2022/10/20 09:56:30;;;;;;;26.27;15.32;;;15.40;99.90;;;;;;5096165;28;20119;-72
2022/10/20 09:59:00;;;;;;;26.92;16.73;;;15.50;99.90;;;;;;5078571;28;20048;-72
2022/10/20 10:01:28;;;;;;;31.33;16.20;;;15.60;99.90;;;;;;5096688;28;20044;-72
2022/10/20 10:04:00;;;;;;;25.25;14.63;;;15.70;99.90;;;;;;5096627;28;20044;-72
2022/10/20 10:06:40;;;;;;;19.92;11.20;;;15.80;99.90;;;;;;5100251;28;20486;-72
2022/10/20 10:09:25;;;;;;;121.80;19.85;;;15.80;99.90;;;;;;5097195;28;20044;-71
2022/10/20 10:11:59;;;;;;;66.97;17.55;;;15.80;99.90;;;;;;5095859;28;20101;-71
2022/10/20 10:14:27;;;;;;;61.05;16.27;;;15.80;99.90;;;;;;5099948;28;20040;-72
2022/10/20 10:16:54;;;;;;;34.60;11.38;;;15.90;99.90;;;;;;5105217;28;20043;-73
2022/10/20 10:19:27;;;;;;;21.52;12.23;;;16.00;99.90;;;;;;5104338;28;20044;-71
2022/10/20 10:21:56;;;;;;;15.40;9.88;;;16.00;99.90;;;;;;5095147;28;20086;-73
2022/10/20 10:24:42;;;;;;;57.22;14.02;;;16.10;99.90;;;;;;5094793;28;20052;-73
2022/10/20 10:27:25;;;;;;;19.13;13.02;;;16.20;99.90;;;;;;5099557;28;20097;-72
2022/10/20 10:29:52;;;;;;;23.95;12.75;;;16.30;99.90;;;;;;5099264;28;20059;-72
2022/10/20 10:32:25;;;;;;;21.63;12.13;;;16.40;99.90;;;;;;5098537;28;20055;-72
2022/10/20 10:35:12;;;;;;;21.10;13.10;;;16.30;99.90;;;;;;5097837;28;20048;-72
2022/10/20 10:37:43;;;;;;;17.15;11.07;;;16.20;99.90;;;;;;5097181;28;20048;-72
2022/10/20 10:40:16;;;;;;;21.30;10.13;;;16.30;98.90;;;;;;5097067;28;20064;-72
2022/10/20 10:43:06;;;;;;;18.15;10.18;;;16.30;98.80;;;;;;5078971;28;20115;-72
2022/10/20 10:45:51;;;;;;;28.17;12.27;;;16.30;99.00;;;;;;5097125;28;20040;-72
2022/10/20 10:48:52;;;;;;;20.88;12.13;;;16.30;99.40;;;;;;5097292;28;20040;-71
2022/10/20 10:51:32;;;;;;;20.15;11.63;;;16.40;99.30;;;;;;5096985;28;20455;-72
2022/10/20 10:54:12;;;;;;;18.00;12.32;;;16.50;98.80;;;;;;5097035;28;20036;-72
2022/10/20 10:56:46;;;;;;;15.98;11.15;;;16.60;98.80;;;;;;5098133;28;20075;-72
2022/10/20 10:59:21;;;;;;;19.75;10.80;;;16.60;98.10;;;;;;5097330;28;20077;-71
2022/10/20 11:02:12;;;;;;;17.33;10.35;;;16.40;98.10;;;;;;5097420;28;20050;-71
2022/10/20 11:05:17;;;;;;;18.65;10.52;;;16.50;97.80;;;;;;5078373;28;20552;-73
2022/10/20 11:07:56;;;;;;;16.45;10.32;;;16.40;97.80;;;;;;5096779;28;20044;-72
2022/10/20 11:10:29;;;;;;;19.23;11.48;;;16.40;97.80;;;;;;5096755;28;20093;-72
2022/10/20 11:13:08;;;;;;;16.88;11.70;;;16.50;97.90;;;;;;5096275;28;20060;-72
2022/10/20 11:16:01;;;;;;;17.98;11.57;;;16.60;97.50;;;;;;5096724;28;20486;-72
2022/10/20 11:18:44;;;;;;;17.58;11.40;;;16.60;96.90;;;;;;5096653;28;20048;-71
2022/10/20 11:21:22;;;;;;;22.08;12.63;;;16.70;97.30;;;;;;5077767;28;20047;-71
2022/10/20 11:24:20;;;;;;;17.98;11.75;;;16.70;96.50;;;;;;5094374;28;20072;-73
2022/10/20 11:26:53;;;;;;;18.50;10.23;;;16.70;95.90;;;;;;5078023;28;20048;-71
2022/10/20 11:29:31;;;;;;;19.35;10.80;;;16.60;96.20;;;;;;5096029;28;20093;-72
2022/10/20 11:32:08;;;;;;;18.33;10.02;;;16.60;95.90;;;;;;5095729;28;20483;-73
2022/10/20 11:34:38;;;;;;;17.80;10.77;;;16.60;95.80;;;;;;5095856;28;20122;-72
2022/10/20 11:37:13;;;;;;;16.05;9.90;;;16.60;96.00;;;;;;5094894;28;20458;-73
2022/10/20 11:39:45;;;;;;;15.43;10.13;;;16.60;96.00;;;;;;5096019;28;20036;-72
2022/10/20 11:42:22;;;;;;;15.48;9.98;;;16.60;96.10;;;;;;5095717;28;20068;-72
2022/10/20 11:44:51;;;;;;;15.70;9.48;;;16.60;96.20;;;;;;5095449;28;20476;-72
2022/10/20 11:47:24;;;;;;;16.35;11.15;;;16.60;96.30;;;;;;5095576;28;20044;-72
2022/10/20 11:49:52;;;;;;;17.40;10.70;;;16.70;96.40;;;;;;5095887;28;20129;-72
2022/10/20 11:53:03;;;;;;;22.02;12.52;;;16.60;96.70;;;;;;5096126;28;20062;-72
2022/10/20 11:56:09;;;;;;;19.58;11.88;;;16.70;96.00;;;;;;5095962;28;20060;-72
2022/10/20 11:58:53;;;;;;;16.98;11.30;;;16.70;95.80;;;;;;5095712;28;20060;-74
2022/10/20 12:01:31;;;;;;;18.00;12.27;;;16.80;95.60;;;;;;5096108;28;20040;-71
2022/10/20 12:04:34;;;;;;;15.32;10.73;;;16.70;95.40;;;;;;5078200;28;20124;-71
2022/10/20 12:07:42;;;;;;;15.77;9.20;;;16.70;95.70;;;;;;5056402;28;20475;-72
2022/10/20 12:10:28;;;;;;;13.48;8.73;;;16.80;95.60;;;;;;5048607;28;20052;-71
2022/10/20 12:13:07;;;;;;;14.32;9.75;;;16.80;94.70;;;;;;5074589;28;20449;-73
2022/10/20 12:15:44;;;;;;;16.67;9.68;;;16.90;94.50;;;;;;5074765;28;20123;-72
2022/10/20 12:18:22;;;;;;;19.55;12.10;;;16.90;94.60;;;;;;5068382;28;20079;-72
2022/10/20 12:20:55;;;;;;;17.60;10.32;;;17.10;94.60;;;;;;5074462;28;20048;-72
2022/10/20 12:24:06;;;;;;;20.13;12.40;;;17.10;94.10;;;;;;5073626;28;20048;-72
2022/10/20 12:26:38;;;;;;;16.23;10.00;;;17.20;94.00;;;;;;5067645;28;20056;-71
2022/10/20 12:29:39;;;;;;;25.25;12.48;;;17.20;93.00;;;;;;5074699;28;20082;-72
2022/10/20 12:32:37;;;;;;;24.23;11.77;;;17.30;93.00;;;;;;5074117;28;20072;-72
2022/10/20 12:35:31;;;;;;;18.13;11.50;;;17.30;92.50;;;;;;5074152;28;20116;-71
2022/10/20 12:38:02;;;;;;;15.48;9.38;;;17.20;91.90;;;;;;5074738;28;20040;-72
2022/10/20 12:40:32;;;;;;;12.05;8.50;;;17.20;91.90;;;;;;5074020;28;20086;-70
2022/10/20 12:43:00;;;;;;;11.65;8.43;;;17.20;90.50;;;;;;5074919;28;20502;-71
2022/10/20 12:45:36;;;;;;;16.00;9.55;;;17.10;90.50;;;;;;5075484;28;20047;-72
2022/10/20 12:48:07;;;;;;;14.88;9.93;;;17.20;90.90;;;;;;5075250;28;20097;-72
2022/10/20 12:50:37;;;;;;;18.17;10.13;;;17.30;91.10;;;;;;5057787;28;20076;-73
2022/10/20 12:53:13;;;;;;;16.80;10.65;;;17.30;90.90;;;;;;5074369;28;20040;-72
2022/10/20 12:55:42;;;;;;;16.45;9.77;;;17.40;90.80;;;;;;5074674;28;20037;-72